sensor_id;sensor_type;location;lat;lon;timestamp;P1;durP1;ratioP1;P2;durP2;ratioP2
3993;SDS011;2011;48.238;13.948;2023-12-20T00:01:00;32.35;;;18.73;;
3993;SDS011;2011;48.238;13.948;2023-12-20T00:03:27;35.80;;;20.00;;
3993;SDS011;2011;48.238;13.948;2023-12-20T00:05:54;36.15;;;19.80;;
3993;SDS011;2011;48.238;13.948;2023-12-20T00:08:21;38.33;;;19.23;;
3993;SDS011;2011;48.238;13.948;2023-12-20T00:10:48;38.85;;;19.52;;
3993;SDS011;2011;48.238;13.948;2023-12-20T00:13:16;32.08;;;17.67;;
3993;SDS011;2011;48.238;13.948;2023-12-20T00:15:43;36.80;;;19.60;;
3993;SDS011;2011;48.238;13.948;2023-12-20T00:18:10;33.60;;;18.08;;
3993;SDS011;2011;48.238;13.948;2023-12-20T00:20:37;34.00;;;19.23;;
3993;SDS011;2011;48.238;13.948;2023-12-20T00:23:04;33.03;;;18.55;;
3993;SDS011;2011;48.238;13.948;2023-12-20T00:25:31;31.17;;;17.30;;
3993;SDS011;2011;48.238;13.948;2023-12-20T00:27:58;28.60;;;16.55;;
3993;SDS011;2011;48.238;13.948;2023-12-20T00:30:26;26.73;;;15.55;;
3993;SDS011;2011;48.238;13.948;2023-12-20T00:32:53;26.63;;;16.02;;
3993;SDS011;2011;48.238;13.948;2023-12-20T00:35:20;27.35;;;15.50;;
3993;SDS011;2011;48.238;13.948;2023-12-20T00:37:47;21.80;;;12.82;;
3993;SDS011;2011;48.238;13.948;2023-12-20T00:40:13;27.60;;;14.57;;
3993;SDS011;2011;48.238;13.948;2023-12-20T00:42:40;19.63;;;13.13;;
3993;SDS011;2011;48.238;13.948;2023-12-20T00:45:07;22.95;;;13.18;;
3993;SDS011;2011;48.238;13.948;2023-12-20T00:47:36;22.98;;;12.95;;
3993;SDS011;2011;48.238;13.948;2023-12-20T00:50:03;20.60;;;12.25;;
3993;SDS011;2011;48.238;13.948;2023-12-20T00:52:31;19.65;;;11.77;;
3993;SDS011;2011;48.238;13.948;2023-12-20T00:54:58;20.67;;;11.88;;
3993;SDS011;2011;48.238;13.948;2023-12-20T00:57:25;29.50;;;11.75;;
3993;SDS011;2011;48.238;13.948;2023-12-20T00:59:51;25.27;;;13.75;;
3993;SDS011;2011;48.238;13.948;2023-12-20T01:02:18;21.98;;;13.00;;
3993;SDS011;2011;48.238;13.948;2023-12-20T01:04:47;23.75;;;12.55;;
3993;SDS011;2011;48.238;13.948;2023-12-20T01:07:13;19.33;;;11.30;;
3993;SDS011;2011;48.238;13.948;2023-12-20T01:09:40;23.23;;;12.40;;
3993;SDS011;2011;48.238;13.948;2023-12-20T01:12:07;12.93;;;8.80;;
3993;SDS011;2011;48.238;13.948;2023-12-20T01:14:34;15.85;;;7.53;;
3993;SDS011;2011;48.238;13.948;2023-12-20T01:17:01;12.45;;;7.35;;
3993;SDS011;2011;48.238;13.948;2023-12-20T01:19:28;11.48;;;6.90;;
3993;SDS011;2011;48.238;13.948;2023-12-20T01:21:56;10.30;;;7.03;;
3993;SDS011;2011;48.238;13.948;2023-12-20T01:24:23;10.68;;;6.22;;
3993;SDS011;2011;48.238;13.948;2023-12-20T01:26:50;9.50;;;6.47;;
3993;SDS011;2011;48.238;13.948;2023-12-20T01:29:17;9.48;;;6.15;;
3993;SDS011;2011;48.238;13.948;2023-12-20T01:31:44;11.05;;;6.43;;
3993;SDS011;2011;48.238;13.948;2023-12-20T01:34:11;8.13;;;5.60;;
3993;SDS011;2011;48.238;13.948;2023-12-20T01:36:38;9.85;;;6.25;;
3993;SDS011;2011;48.238;13.948;2023-12-20T01:39:06;17.90;;;9.70;;
3993;SDS011;2011;48.238;13.948;2023-12-20T01:41:33;24.13;;;10.88;;
3993;SDS011;2011;48.238;13.948;2023-12-20T01:44:00;24.50;;;11.52;;
3993;SDS011;2011;48.238;13.948;2023-12-20T01:46:27;17.30;;;10.38;;
3993;SDS011;2011;48.238;13.948;2023-12-20T01:48:54;11.93;;;7.40;;
3993;SDS011;2011;48.238;13.948;2023-12-20T01:51:21;13.70;;;8.10;;
3993;SDS011;2011;48.238;13.948;2023-12-20T01:53:48;19.77;;;11.38;;
3993;SDS011;2011;48.238;13.948;2023-12-20T01:56:17;19.73;;;11.45;;
3993;SDS011;2011;48.238;13.948;2023-12-20T01:58:44;18.10;;;11.20;;
3993;SDS011;2011;48.238;13.948;2023-12-20T02:01:13;18.60;;;10.00;;
3993;SDS011;2011;48.238;13.948;2023-12-20T02:03:41;19.60;;;11.02;;
3993;SDS011;2011;48.238;13.948;2023-12-20T02:06:08;21.75;;;11.50;;
3993;SDS011;2011;48.238;13.948;2023-12-20T02:08:36;22.92;;;11.63;;
3993;SDS011;2011;48.238;13.948;2023-12-20T02:11:03;25.55;;;11.13;;
3993;SDS011;2011;48.238;13.948;2023-12-20T02:13:31;16.17;;;11.00;;
3993;SDS011;2011;48.238;13.948;2023-12-20T02:15:58;17.80;;;10.23;;
3993;SDS011;2011;48.238;13.948;2023-12-20T02:18:25;17.65;;;10.63;;
3993;SDS011;2011;48.238;13.948;2023-12-20T02:20:52;23.52;;;10.05;;
3993;SDS011;2011;48.238;13.948;2023-12-20T02:23:21;23.02;;;12.68;;
3993;SDS011;2011;48.238;13.948;2023-12-20T02:25:48;21.10;;;13.00;;
3993;SDS011;2011;48.238;13.948;2023-12-20T02:28:15;19.70;;;12.05;;
3993;SDS011;2011;48.238;13.948;2023-12-20T02:30:42;20.98;;;12.10;;
3993;SDS011;2011;48.238;13.948;2023-12-20T02:33:10;19.13;;;10.85;;
3993;SDS011;2011;48.238;13.948;2023-12-20T02:35:38;23.35;;;11.43;;
3993;SDS011;2011;48.238;13.948;2023-12-20T02:38:05;19.23;;;11.40;;
3993;SDS011;2011;48.238;13.948;2023-12-20T02:40:33;18.77;;;10.40;;
3993;SDS011;2011;48.238;13.948;2023-12-20T02:43:00;20.98;;;11.30;;
3993;SDS011;2011;48.238;13.948;2023-12-20T02:45:27;15.27;;;9.48;;
3993;SDS011;2011;48.238;13.948;2023-12-20T02:47:54;22.30;;;9.80;;
3993;SDS011;2011;48.238;13.948;2023-12-20T02:50:21;17.77;;;10.73;;
3993;SDS011;2011;48.238;13.948;2023-12-20T02:52:48;18.40;;;9.38;;
3993;SDS011;2011;48.238;13.948;2023-12-20T02:55:15;17.08;;;9.77;;
3993;SDS011;2011;48.238;13.948;2023-12-20T02:57:43;14.05;;;9.45;;
3993;SDS011;2011;48.238;13.948;2023-12-20T03:00:10;20.83;;;11.02;;
3993;SDS011;2011;48.238;13.948;2023-12-20T03:02:37;16.90;;;10.43;;
3993;SDS011;2011;48.238;13.948;2023-12-20T03:05:05;18.25;;;9.88;;
3993;SDS011;2011;48.238;13.948;2023-12-20T03:07:32;17.58;;;10.00;;
3993;SDS011;2011;48.238;13.948;2023-12-20T03:09:59;21.70;;;13.48;;
3993;SDS011;2011;48.238;13.948;2023-12-20T03:12:26;19.15;;;12.05;;
3993;SDS011;2011;48.238;13.948;2023-12-20T03:14:54;23.63;;;13.75;;
3993;SDS011;2011;48.238;13.948;2023-12-20T03:17:21;21.23;;;12.85;;
3993;SDS011;2011;48.238;13.948;2023-12-20T03:19:48;27.27;;;14.70;;
3993;SDS011;2011;48.238;13.948;2023-12-20T03:22:15;24.20;;;15.13;;
3993;SDS011;2011;48.238;13.948;2023-12-20T03:24:42;25.02;;;13.40;;
3993;SDS011;2011;48.238;13.948;2023-12-20T03:27:08;25.73;;;13.82;;
3993;SDS011;2011;48.238;13.948;2023-12-20T03:29:35;18.65;;;12.00;;
3993;SDS011;2011;48.238;13.948;2023-12-20T03:32:04;23.75;;;11.10;;
3993;SDS011;2011;48.238;13.948;2023-12-20T03:34:31;17.23;;;10.50;;
3993;SDS011;2011;48.238;13.948;2023-12-20T03:36:58;19.70;;;11.98;;
3993;SDS011;2011;48.238;13.948;2023-12-20T03:39:25;23.15;;;13.20;;
3993;SDS011;2011;48.238;13.948;2023-12-20T03:41:51;17.80;;;11.40;;
3993;SDS011;2011;48.238;13.948;2023-12-20T03:44:18;18.60;;;10.73;;
3993;SDS011;2011;48.238;13.948;2023-12-20T03:46:45;19.77;;;10.93;;
3993;SDS011;2011;48.238;13.948;2023-12-20T03:49:15;15.55;;;10.20;;
3993;SDS011;2011;48.238;13.948;2023-12-20T03:51:42;19.98;;;12.20;;
3993;SDS011;2011;48.238;13.948;2023-12-20T03:54:09;23.25;;;12.35;;
3993;SDS011;2011;48.238;13.948;2023-12-20T03:56:36;22.50;;;12.20;;
3993;SDS011;2011;48.238;13.948;2023-12-20T03:59:03;21.13;;;11.75;;
3993;SDS011;2011;48.238;13.948;2023-12-20T04:01:29;20.15;;;11.68;;
3993;SDS011;2011;48.238;13.948;2023-12-20T04:03:56;15.65;;;9.77;;
3993;SDS011;2011;48.238;13.948;2023-12-20T04:06:25;19.38;;;11.00;;
3993;SDS011;2011;48.238;13.948;2023-12-20T04:08:52;16.25;;;10.15;;
3993;SDS011;2011;48.238;13.948;2023-12-20T04:11:18;20.05;;;10.07;;
3993;SDS011;2011;48.238;13.948;2023-12-20T04:13:45;17.33;;;10.30;;
3993;SDS011;2011;48.238;13.948;2023-12-20T04:16:12;18.45;;;11.07;;
3993;SDS011;2011;48.238;13.948;2023-12-20T04:18:39;17.80;;;11.35;;
3993;SDS011;2011;48.238;13.948;2023-12-20T04:21:06;20.52;;;11.95;;
3993;SDS011;2011;48.238;13.948;2023-12-20T04:23:34;27.42;;;14.13;;
3993;SDS011;2011;48.238;13.948;2023-12-20T04:26:01;29.50;;;14.40;;
3993;SDS011;2011;48.238;13.948;2023-12-20T04:28:28;21.23;;;11.82;;
3993;SDS011;2011;48.238;13.948;2023-12-20T04:30:55;23.00;;;12.05;;
3993;SDS011;2011;48.238;13.948;2023-12-20T04:33:22;20.98;;;12.95;;
3993;SDS011;2011;48.238;13.948;2023-12-20T04:35:49;20.70;;;11.00;;
3993;SDS011;2011;48.238;13.948;2023-12-20T04:38:16;17.38;;;10.63;;
3993;SDS011;2011;48.238;13.948;2023-12-20T04:40:44;18.90;;;11.02;;
3993;SDS011;2011;48.238;13.948;2023-12-20T04:43:11;17.25;;;9.60;;
3993;SDS011;2011;48.238;13.948;2023-12-20T04:45:38;22.63;;;11.80;;
3993;SDS011;2011;48.238;13.948;2023-12-20T04:48:05;21.48;;;12.55;;
3993;SDS011;2011;48.238;13.948;2023-12-20T04:50:32;21.35;;;11.40;;
3993;SDS011;2011;48.238;13.948;2023-12-20T04:52:59;26.95;;;11.88;;
3993;SDS011;2011;48.238;13.948;2023-12-20T04:55:26;20.10;;;11.50;;
3993;SDS011;2011;48.238;13.948;2023-12-20T04:57:54;17.67;;;11.18;;
3993;SDS011;2011;48.238;13.948;2023-12-20T05:00:21;18.60;;;10.40;;
3993;SDS011;2011;48.238;13.948;2023-12-20T05:02:48;19.33;;;10.40;;
3993;SDS011;2011;48.238;13.948;2023-12-20T05:05:15;19.25;;;11.65;;
3993;SDS011;2011;48.238;13.948;2023-12-20T05:07:43;20.95;;;11.18;;
3993;SDS011;2011;48.238;13.948;2023-12-20T05:10:09;19.05;;;11.55;;
3993;SDS011;2011;48.238;13.948;2023-12-20T05:12:36;27.52;;;14.07;;
3993;SDS011;2011;48.238;13.948;2023-12-20T05:15:06;21.75;;;12.30;;
3993;SDS011;2011;48.238;13.948;2023-12-20T05:17:33;22.55;;;11.10;;
3993;SDS011;2011;48.238;13.948;2023-12-20T05:20:00;18.33;;;11.07;;
3993;SDS011;2011;48.238;13.948;2023-12-20T05:22:27;19.98;;;11.32;;
3993;SDS011;2011;48.238;13.948;2023-12-20T05:24:54;23.05;;;10.35;;
3993;SDS011;2011;48.238;13.948;2023-12-20T05:27:21;26.00;;;10.95;;
3993;SDS011;2011;48.238;13.948;2023-12-20T05:29:48;21.60;;;11.82;;
3993;SDS011;2011;48.238;13.948;2023-12-20T05:32:16;17.35;;;11.15;;
3993;SDS011;2011;48.238;13.948;2023-12-20T05:34:43;20.85;;;8.40;;
3993;SDS011;2011;48.238;13.948;2023-12-20T05:37:10;14.93;;;9.43;;
3993;SDS011;2011;48.238;13.948;2023-12-20T05:39:37;13.02;;;8.70;;
3993;SDS011;2011;48.238;13.948;2023-12-20T05:42:04;18.60;;;12.55;;
3993;SDS011;2011;48.238;13.948;2023-12-20T05:44:31;20.42;;;11.68;;
3993;SDS011;2011;48.238;13.948;2023-12-20T05:46:58;13.93;;;9.73;;
3993;SDS011;2011;48.238;13.948;2023-12-20T05:49:26;11.77;;;6.40;;
3993;SDS011;2011;48.238;13.948;2023-12-20T05:51:56;6.45;;;4.72;;
3993;SDS011;2011;48.238;13.948;2023-12-20T05:54:23;6.95;;;4.50;;
3993;SDS011;2011;48.238;13.948;2023-12-20T05:56:50;7.05;;;4.20;;
3993;SDS011;2011;48.238;13.948;2023-12-20T05:59:16;8.07;;;4.35;;
3993;SDS011;2011;48.238;13.948;2023-12-20T06:01:43;6.40;;;4.30;;
3993;SDS011;2011;48.238;13.948;2023-12-20T06:04:10;6.43;;;3.55;;
3993;SDS011;2011;48.238;13.948;2023-12-20T06:06:41;5.25;;;3.35;;
3993;SDS011;2011;48.238;13.948;2023-12-20T06:09:09;7.43;;;4.00;;
3993;SDS011;2011;48.238;13.948;2023-12-20T06:11:36;6.38;;;3.70;;
3993;SDS011;2011;48.238;13.948;2023-12-20T06:14:04;3.83;;;2.80;;
3993;SDS011;2011;48.238;13.948;2023-12-20T06:16:31;3.57;;;2.57;;
3993;SDS011;2011;48.238;13.948;2023-12-20T06:18:58;4.97;;;3.13;;
3993;SDS011;2011;48.238;13.948;2023-12-20T06:21:25;3.50;;;2.43;;
3993;SDS011;2011;48.238;13.948;2023-12-20T06:23:53;4.20;;;2.93;;
3993;SDS011;2011;48.238;13.948;2023-12-20T06:26:20;5.07;;;3.00;;
3993;SDS011;2011;48.238;13.948;2023-12-20T06:28:48;4.23;;;3.30;;
3993;SDS011;2011;48.238;13.948;2023-12-20T06:31:15;4.57;;;3.20;;
3993;SDS011;2011;48.238;13.948;2023-12-20T06:33:42;6.43;;;3.33;;
3993;SDS011;2011;48.238;13.948;2023-12-20T06:36:10;6.90;;;3.33;;
3993;SDS011;2011;48.238;13.948;2023-12-20T06:38:38;5.33;;;3.37;;
3993;SDS011;2011;48.238;13.948;2023-12-20T06:41:06;7.27;;;3.50;;
3993;SDS011;2011;48.238;13.948;2023-12-20T06:43:33;5.40;;;3.03;;
3993;SDS011;2011;48.238;13.948;2023-12-20T06:46:00;7.37;;;3.23;;
3993;SDS011;2011;48.238;13.948;2023-12-20T06:48:27;6.60;;;3.23;;
3993;SDS011;2011;48.238;13.948;2023-12-20T06:50:54;4.33;;;2.77;;
3993;SDS011;2011;48.238;13.948;2023-12-20T06:53:21;6.60;;;2.67;;
3993;SDS011;2011;48.238;13.948;2023-12-20T06:55:48;4.10;;;2.70;;
3993;SDS011;2011;48.238;13.948;2023-12-20T06:58:17;4.03;;;2.77;;
3993;SDS011;2011;48.238;13.948;2023-12-20T07:00:44;22.93;;;2.73;;
3993;SDS011;2011;48.238;13.948;2023-12-20T07:03:11;4.83;;;2.50;;
3993;SDS011;2011;48.238;13.948;2023-12-20T07:05:38;7.60;;;3.00;;
3993;SDS011;2011;48.238;13.948;2023-12-20T07:08:06;4.07;;;2.50;;
3993;SDS011;2011;48.238;13.948;2023-12-20T07:10:33;3.00;;;2.00;;
3993;SDS011;2011;48.238;13.948;2023-12-20T07:13:00;3.90;;;2.57;;
3993;SDS011;2011;48.238;13.948;2023-12-20T07:15:28;5.40;;;2.53;;
3993;SDS011;2011;48.238;13.948;2023-12-20T07:17:55;4.10;;;2.60;;
3993;SDS011;2011;48.238;13.948;2023-12-20T07:20:25;3.00;;;2.10;;
3993;SDS011;2011;48.238;13.948;2023-12-20T07:22:52;6.20;;;2.77;;
3993;SDS011;2011;48.238;13.948;2023-12-20T07:25:19;4.43;;;2.93;;
3993;SDS011;2011;48.238;13.948;2023-12-20T07:27:46;3.93;;;2.37;;
3993;SDS011;2011;48.238;13.948;2023-12-20T07:30:13;4.63;;;2.70;;
3993;SDS011;2011;48.238;13.948;2023-12-20T07:32:42;7.60;;;2.70;;
3993;SDS011;2011;48.238;13.948;2023-12-20T07:35:09;5.33;;;2.30;;
3993;SDS011;2011;48.238;13.948;2023-12-20T07:37:36;4.83;;;2.60;;
3993;SDS011;2011;48.238;13.948;2023-12-20T07:40:03;3.23;;;1.90;;
3993;SDS011;2011;48.238;13.948;2023-12-20T07:42:31;3.57;;;2.17;;
3993;SDS011;2011;48.238;13.948;2023-12-20T07:44:58;3.30;;;2.37;;
3993;SDS011;2011;48.238;13.948;2023-12-20T07:47:25;3.90;;;2.47;;
3993;SDS011;2011;48.238;13.948;2023-12-20T07:49:53;3.13;;;2.23;;
3993;SDS011;2011;48.238;13.948;2023-12-20T07:52:20;3.33;;;2.50;;
3993;SDS011;2011;48.238;13.948;2023-12-20T07:54:48;6.53;;;2.90;;
3993;SDS011;2011;48.238;13.948;2023-12-20T07:57:15;6.37;;;3.20;;
3993;SDS011;2011;48.238;13.948;2023-12-20T07:59:42;4.03;;;2.90;;
3993;SDS011;2011;48.238;13.948;2023-12-20T08:02:09;3.77;;;3.10;;
3993;SDS011;2011;48.238;13.948;2023-12-20T08:04:36;3.53;;;2.63;;
3993;SDS011;2011;48.238;13.948;2023-12-20T08:07:05;3.73;;;3.10;;
3993;SDS011;2011;48.238;13.948;2023-12-20T08:09:32;3.97;;;2.90;;
3993;SDS011;2011;48.238;13.948;2023-12-20T08:12:02;5.20;;;3.20;;
3993;SDS011;2011;48.238;13.948;2023-12-20T08:14:29;4.50;;;3.17;;
3993;SDS011;2011;48.238;13.948;2023-12-20T08:16:56;9.43;;;3.33;;
3993;SDS011;2011;48.238;13.948;2023-12-20T08:19:23;4.70;;;2.93;;
3993;SDS011;2011;48.238;13.948;2023-12-20T08:21:50;6.47;;;3.60;;
3993;SDS011;2011;48.238;13.948;2023-12-20T08:24:18;5.27;;;3.30;;
3993;SDS011;2011;48.238;13.948;2023-12-20T08:26:45;6.40;;;2.97;;
3993;SDS011;2011;48.238;13.948;2023-12-20T08:29:12;5.80;;;3.60;;
3993;SDS011;2011;48.238;13.948;2023-12-20T08:31:39;5.33;;;3.47;;
3993;SDS011;2011;48.238;13.948;2023-12-20T08:34:06;5.00;;;3.40;;
3993;SDS011;2011;48.238;13.948;2023-12-20T08:36:33;4.60;;;3.90;;
3993;SDS011;2011;48.238;13.948;2023-12-20T08:39:00;4.53;;;3.57;;
3993;SDS011;2011;48.238;13.948;2023-12-20T08:41:30;5.50;;;3.87;;
3993;SDS011;2011;48.238;13.948;2023-12-20T08:43:57;5.00;;;3.73;;
3993;SDS011;2011;48.238;13.948;2023-12-20T08:46:24;5.17;;;3.73;;
3993;SDS011;2011;48.238;13.948;2023-12-20T08:48:51;7.13;;;3.83;;
3993;SDS011;2011;48.238;13.948;2023-12-20T08:51:18;6.70;;;3.60;;
3993;SDS011;2011;48.238;13.948;2023-12-20T08:53:46;5.00;;;3.90;;
3993;SDS011;2011;48.238;13.948;2023-12-20T08:56:13;4.00;;;3.30;;
3993;SDS011;2011;48.238;13.948;2023-12-20T08:58:42;5.47;;;3.90;;
3993;SDS011;2011;48.238;13.948;2023-12-20T09:01:09;8.07;;;3.90;;
3993;SDS011;2011;48.238;13.948;2023-12-20T09:03:35;5.97;;;3.90;;
3993;SDS011;2011;48.238;13.948;2023-12-20T09:06:03;5.10;;;3.27;;
3993;SDS011;2011;48.238;13.948;2023-12-20T09:08:30;8.73;;;3.87;;
3993;SDS011;2011;48.238;13.948;2023-12-20T09:10:57;5.73;;;3.60;;
3993;SDS011;2011;48.238;13.948;2023-12-20T09:13:24;6.07;;;3.70;;
3993;SDS011;2011;48.238;13.948;2023-12-20T09:15:54;12.63;;;3.60;;
3993;SDS011;2011;48.238;13.948;2023-12-20T09:18:21;5.37;;;3.10;;
3993;SDS011;2011;48.238;13.948;2023-12-20T09:20:48;6.40;;;3.10;;
3993;SDS011;2011;48.238;13.948;2023-12-20T09:23:15;3.20;;;2.80;;
3993;SDS011;2011;48.238;13.948;2023-12-20T09:25:43;4.00;;;3.10;;
3993;SDS011;2011;48.238;13.948;2023-12-20T09:28:10;3.03;;;2.60;;
3993;SDS011;2011;48.238;13.948;2023-12-20T09:30:37;4.00;;;3.00;;
3993;SDS011;2011;48.238;13.948;2023-12-20T09:33:06;7.20;;;3.93;;
3993;SDS011;2011;48.238;13.948;2023-12-20T09:35:33;8.37;;;4.07;;
3993;SDS011;2011;48.238;13.948;2023-12-20T09:38:00;4.50;;;2.77;;
3993;SDS011;2011;48.238;13.948;2023-12-20T09:40:27;3.50;;;2.70;;
3993;SDS011;2011;48.238;13.948;2023-12-20T09:42:56;6.43;;;3.37;;
3993;SDS011;2011;48.238;13.948;2023-12-20T09:45:24;5.47;;;2.87;;
3993;SDS011;2011;48.238;13.948;2023-12-20T09:47:52;4.40;;;3.03;;
3993;SDS011;2011;48.238;13.948;2023-12-20T09:50:21;4.30;;;3.37;;
3993;SDS011;2011;48.238;13.948;2023-12-20T09:52:49;4.67;;;3.43;;
3993;SDS011;2011;48.238;13.948;2023-12-20T09:55:17;3.93;;;2.80;;
3993;SDS011;2011;48.238;13.948;2023-12-20T09:57:45;3.80;;;2.70;;
3993;SDS011;2011;48.238;13.948;2023-12-20T10:00:12;3.53;;;2.20;;
3993;SDS011;2011;48.238;13.948;2023-12-20T10:02:42;5.03;;;2.50;;
3993;SDS011;2011;48.238;13.948;2023-12-20T10:05:17;2.00;;;1.63;;
3993;SDS011;2011;48.238;13.948;2023-12-20T10:07:46;4.97;;;2.10;;
3993;SDS011;2011;48.238;13.948;2023-12-20T10:10:13;2.70;;;2.20;;
3993;SDS011;2011;48.238;13.948;2023-12-20T10:12:40;4.07;;;1.97;;
3993;SDS011;2011;48.238;13.948;2023-12-20T10:15:27;1.97;;;1.77;;
3993;SDS011;2011;48.238;13.948;2023-12-20T10:17:56;2.30;;;1.90;;
3993;SDS011;2011;48.238;13.948;2023-12-20T10:20:23;2.93;;;1.93;;
3993;SDS011;2011;48.238;13.948;2023-12-20T10:22:51;4.50;;;2.03;;
3993;SDS011;2011;48.238;13.948;2023-12-20T10:25:19;3.80;;;2.27;;
3993;SDS011;2011;48.238;13.948;2023-12-20T10:27:46;2.97;;;2.13;;
3993;SDS011;2011;48.238;13.948;2023-12-20T10:30:13;4.67;;;2.23;;
3993;SDS011;2011;48.238;13.948;2023-12-20T10:32:41;3.90;;;2.30;;
3993;SDS011;2011;48.238;13.948;2023-12-20T10:35:08;4.40;;;2.83;;
3993;SDS011;2011;48.238;13.948;2023-12-20T10:37:36;3.80;;;2.30;;
3993;SDS011;2011;48.238;13.948;2023-12-20T10:40:05;3.23;;;2.07;;
3993;SDS011;2011;48.238;13.948;2023-12-20T10:42:33;2.73;;;2.20;;
3993;SDS011;2011;48.238;13.948;2023-12-20T10:45:02;2.23;;;1.87;;
3993;SDS011;2011;48.238;13.948;2023-12-20T10:47:30;4.47;;;2.40;;
3993;SDS011;2011;48.238;13.948;2023-12-20T10:49:59;2.80;;;2.10;;
3993;SDS011;2011;48.238;13.948;2023-12-20T10:52:27;2.53;;;2.03;;
3993;SDS011;2011;48.238;13.948;2023-12-20T10:54:55;3.67;;;1.90;;
3993;SDS011;2011;48.238;13.948;2023-12-20T10:57:24;4.00;;;1.93;;
3993;SDS011;2011;48.238;13.948;2023-12-20T10:59:54;3.00;;;1.93;;
3993;SDS011;2011;48.238;13.948;2023-12-20T11:02:22;2.17;;;1.60;;
3993;SDS011;2011;48.238;13.948;2023-12-20T11:04:52;3.00;;;2.10;;
3993;SDS011;2011;48.238;13.948;2023-12-20T11:07:28;3.33;;;1.97;;
3993;SDS011;2011;48.238;13.948;2023-12-20T11:10:10;5.63;;;3.17;;
3993;SDS011;2011;48.238;13.948;2023-12-20T11:12:47;2.13;;;1.40;;
3993;SDS011;2011;48.238;13.948;2023-12-20T11:15:18;2.80;;;1.37;;
3993;SDS011;2011;48.238;13.948;2023-12-20T11:17:46;1.50;;;1.20;;
3993;SDS011;2011;48.238;13.948;2023-12-20T11:20:22;2.13;;;1.70;;
3993;SDS011;2011;48.238;13.948;2023-12-20T11:22:52;2.17;;;1.63;;
3993;SDS011;2011;48.238;13.948;2023-12-20T11:25:21;1.83;;;1.50;;
3993;SDS011;2011;48.238;13.948;2023-12-20T11:30:42;2.93;;;1.93;;
3993;SDS011;2011;48.238;13.948;2023-12-20T11:33:12;1.60;;;1.47;;
3993;SDS011;2011;48.238;13.948;2023-12-20T11:35:39;2.20;;;1.80;;
3993;SDS011;2011;48.238;13.948;2023-12-20T11:38:07;2.70;;;1.90;;
3993;SDS011;2011;48.238;13.948;2023-12-20T11:40:35;1.80;;;1.47;;
3993;SDS011;2011;48.238;13.948;2023-12-20T11:43:02;1.40;;;1.30;;
3993;SDS011;2011;48.238;13.948;2023-12-20T11:45:32;1.63;;;1.53;;
3993;SDS011;2011;48.238;13.948;2023-12-20T11:48:00;1.80;;;1.30;;
3993;SDS011;2011;48.238;13.948;2023-12-20T11:50:28;1.93;;;1.67;;
3993;SDS011;2011;48.238;13.948;2023-12-20T11:52:56;3.00;;;2.10;;
3993;SDS011;2011;48.238;13.948;2023-12-20T11:55:23;2.67;;;1.40;;
3993;SDS011;2011;48.238;13.948;2023-12-20T11:57:50;1.50;;;1.40;;
3993;SDS011;2011;48.238;13.948;2023-12-20T12:00:18;2.27;;;1.87;;
3993;SDS011;2011;48.238;13.948;2023-12-20T12:02:56;1.87;;;1.70;;
3993;SDS011;2011;48.238;13.948;2023-12-20T12:05:23;1.50;;;1.40;;
3993;SDS011;2011;48.238;13.948;2023-12-20T12:07:51;3.40;;;1.70;;
3993;SDS011;2011;48.238;13.948;2023-12-20T12:10:18;3.30;;;1.83;;
3993;SDS011;2011;48.238;13.948;2023-12-20T12:12:45;1.70;;;1.60;;
3993;SDS011;2011;48.238;13.948;2023-12-20T12:15:13;2.67;;;1.50;;
3993;SDS011;2011;48.238;13.948;2023-12-20T12:17:40;5.00;;;2.23;;
3993;SDS011;2011;48.238;13.948;2023-12-20T12:20:09;1.90;;;1.60;;
3993;SDS011;2011;48.238;13.948;2023-12-20T12:22:36;3.20;;;2.10;;
3993;SDS011;2011;48.238;13.948;2023-12-20T12:25:10;2.07;;;1.70;;
3993;SDS011;2011;48.238;13.948;2023-12-20T12:27:39;2.00;;;1.53;;
3993;SDS011;2011;48.238;13.948;2023-12-20T12:30:07;1.90;;;1.60;;
3993;SDS011;2011;48.238;13.948;2023-12-20T12:32:38;3.80;;;2.23;;
3993;SDS011;2011;48.238;13.948;2023-12-20T12:35:05;2.87;;;1.57;;
3993;SDS011;2011;48.238;13.948;2023-12-20T12:37:37;3.83;;;1.97;;
3993;SDS011;2011;48.238;13.948;2023-12-20T12:40:05;4.07;;;2.00;;
3993;SDS011;2011;48.238;13.948;2023-12-20T12:42:32;2.93;;;2.23;;
3993;SDS011;2011;48.238;13.948;2023-12-20T12:44:59;3.10;;;2.03;;
3993;SDS011;2011;48.238;13.948;2023-12-20T12:47:26;2.97;;;1.97;;
3993;SDS011;2011;48.238;13.948;2023-12-20T12:49:53;2.60;;;2.00;;
3993;SDS011;2011;48.238;13.948;2023-12-20T12:52:20;2.30;;;2.00;;
3993;SDS011;2011;48.238;13.948;2023-12-20T12:54:49;2.30;;;2.00;;
3993;SDS011;2011;48.238;13.948;2023-12-20T12:57:16;3.87;;;1.93;;
3993;SDS011;2011;48.238;13.948;2023-12-20T12:59:43;3.10;;;2.53;;
3993;SDS011;2011;48.238;13.948;2023-12-20T13:02:11;3.77;;;2.40;;
3993;SDS011;2011;48.238;13.948;2023-12-20T13:04:38;3.13;;;2.30;;
3993;SDS011;2011;48.238;13.948;2023-12-20T13:07:05;2.00;;;1.80;;
3993;SDS011;2011;48.238;13.948;2023-12-20T13:09:32;4.10;;;2.70;;
3993;SDS011;2011;48.238;13.948;2023-12-20T13:12:01;3.10;;;2.23;;
3993;SDS011;2011;48.238;13.948;2023-12-20T13:14:29;3.57;;;2.30;;
3993;SDS011;2011;48.238;13.948;2023-12-20T13:16:58;3.00;;;2.40;;
3993;SDS011;2011;48.238;13.948;2023-12-20T13:19:25;2.80;;;2.03;;
3993;SDS011;2011;48.238;13.948;2023-12-20T13:21:52;3.10;;;2.03;;
3993;SDS011;2011;48.238;13.948;2023-12-20T13:24:19;2.57;;;2.13;;
3993;SDS011;2011;48.238;13.948;2023-12-20T13:26:46;4.37;;;2.20;;
3993;SDS011;2011;48.238;13.948;2023-12-20T13:29:15;6.10;;;2.10;;
3993;SDS011;2011;48.238;13.948;2023-12-20T13:31:41;3.40;;;2.17;;
3993;SDS011;2011;48.238;13.948;2023-12-20T13:34:08;2.27;;;1.90;;
3993;SDS011;2011;48.238;13.948;2023-12-20T13:36:35;2.47;;;2.13;;
3993;SDS011;2011;48.238;13.948;2023-12-20T13:39:02;3.93;;;2.40;;
3993;SDS011;2011;48.238;13.948;2023-12-20T13:41:30;3.67;;;2.20;;
3993;SDS011;2011;48.238;13.948;2023-12-20T13:43:57;2.93;;;2.20;;
3993;SDS011;2011;48.238;13.948;2023-12-20T13:46:25;2.73;;;2.10;;
3993;SDS011;2011;48.238;13.948;2023-12-20T13:48:52;3.17;;;1.90;;
3993;SDS011;2011;48.238;13.948;2023-12-20T13:51:19;2.60;;;1.97;;
3993;SDS011;2011;48.238;13.948;2023-12-20T13:53:46;2.90;;;2.03;;
3993;SDS011;2011;48.238;13.948;2023-12-20T13:56:14;5.70;;;1.83;;
3993;SDS011;2011;48.238;13.948;2023-12-20T13:58:41;2.90;;;2.10;;
3993;SDS011;2011;48.238;13.948;2023-12-20T14:01:08;4.10;;;2.20;;
3993;SDS011;2011;48.238;13.948;2023-12-20T14:03:38;2.90;;;1.80;;
3993;SDS011;2011;48.238;13.948;2023-12-20T14:06:06;4.53;;;1.87;;
3993;SDS011;2011;48.238;13.948;2023-12-20T14:08:33;3.13;;;2.13;;
3993;SDS011;2011;48.238;13.948;2023-12-20T14:11:01;2.93;;;1.73;;
3993;SDS011;2011;48.238;13.948;2023-12-20T14:13:28;3.40;;;1.90;;
3993;SDS011;2011;48.238;13.948;2023-12-20T14:15:56;1.70;;;1.37;;
3993;SDS011;2011;48.238;13.948;2023-12-20T14:18:25;2.47;;;1.67;;
3993;SDS011;2011;48.238;13.948;2023-12-20T14:20:53;2.50;;;1.57;;
3993;SDS011;2011;48.238;13.948;2023-12-20T14:23:20;2.50;;;1.63;;
3993;SDS011;2011;48.238;13.948;2023-12-20T14:25:47;2.30;;;1.80;;
3993;SDS011;2011;48.238;13.948;2023-12-20T14:28:15;3.40;;;2.00;;
3993;SDS011;2011;48.238;13.948;2023-12-20T14:30:42;2.63;;;1.60;;
3993;SDS011;2011;48.238;13.948;2023-12-20T14:33:08;3.03;;;1.93;;
3993;SDS011;2011;48.238;13.948;2023-12-20T14:35:35;3.30;;;2.07;;
3993;SDS011;2011;48.238;13.948;2023-12-20T14:38:04;2.73;;;1.83;;
3993;SDS011;2011;48.238;13.948;2023-12-20T14:40:31;3.20;;;1.93;;
3993;SDS011;2011;48.238;13.948;2023-12-20T14:42:58;3.20;;;1.97;;
3993;SDS011;2011;48.238;13.948;2023-12-20T14:45:25;3.13;;;1.93;;
3993;SDS011;2011;48.238;13.948;2023-12-20T14:47:52;4.50;;;2.30;;
3993;SDS011;2011;48.238;13.948;2023-12-20T14:50:19;4.97;;;2.40;;
3993;SDS011;2011;48.238;13.948;2023-12-20T14:52:46;3.30;;;2.13;;
3993;SDS011;2011;48.238;13.948;2023-12-20T14:55:15;3.20;;;2.40;;
3993;SDS011;2011;48.238;13.948;2023-12-20T14:57:42;3.00;;;2.10;;